Time;durP1;ratioP1;P1;durP2;ratioP2;P2;SDS_P1;SDS_P2;PMS_P1;PMS_P2;Temp;Humidity;BMP_temperature;BMP_pressure;BME280_temperature;BME280_humidity;BME280_pressure;Samples;Min_cycle;Max_cycle;Signal;HPM_P1;HPM_P2
2022/05/15 00:02:02;;;;;;;1.80;0.85;;;;;;;21.45;31.38;98112.66;5135939;27;20092;-66
2022/05/15 00:04:28;;;;;;;2.45;0.80;;;;;;;21.44;31.32;98103.78;5135755;27;20061;-66
2022/05/15 00:06:53;;;;;;;3.78;1.17;;;;;;;21.42;31.16;98113.94;5135976;27;20157;-66
2022/05/15 00:09:19;;;;;;;2.17;0.95;;;;;;;21.40;31.21;98109.81;5148877;27;20477;-66
2022/05/15 00:11:44;;;;;;;4.10;1.10;;;;;;;21.41;31.06;98111.47;5147426;27;20055;-66
2022/05/15 00:14:10;;;;;;;3.85;0.85;;;;;;;21.40;31.06;98107.13;5156336;27;20471;-66
2022/05/15 00:16:36;;;;;;;2.15;1.05;;;;;;;21.39;31.14;98108.19;5156519;27;20081;-66
2022/05/15 00:19:01;;;;;;;3.05;0.90;;;;;;;21.39;31.11;98108.19;5155949;27;20079;-66
2022/05/15 00:21:27;;;;;;;4.20;1.10;;;;;;;21.37;31.22;98104.91;5142591;27;20023;-66
2022/05/15 00:23:53;;;;;;;2.92;1.20;;;;;;;21.35;31.24;98099.75;5135509;27;20038;-66
2022/05/15 00:26:18;;;;;;;2.10;1.23;;;;;;;21.38;31.13;98101.97;5139519;27;20034;-65
2022/05/15 00:28:44;;;;;;;2.28;0.80;;;;;;;21.38;31.01;98103.88;5155111;27;20515;-65
2022/05/15 00:31:10;;;;;;;2.33;1.23;;;;;;;21.36;31.10;98093.31;5150367;27;20027;-65
2022/05/15 00:33:36;;;;;;;3.97;1.10;;;;;;;21.37;31.11;98099.53;5153323;27;20029;-66
2022/05/15 00:36:02;;;;;;;3.05;1.20;;;;;;;21.39;31.23;98100.13;5154066;27;20035;-67
2022/05/15 00:38:27;;;;;;;5.28;1.52;;;;;;;21.39;31.23;98102.81;5150583;27;20031;-68
2022/05/15 00:40:53;;;;;;;6.57;1.17;;;;;;;21.34;31.19;98092.72;5145358;27;20031;-67
2022/05/15 00:43:42;;;;;;;2.47;0.85;;;;;;;21.26;31.42;98096.53;5154432;27;20446;-67
2022/05/15 00:46:12;;;;;;;2.60;1.42;;;;;;;21.21;31.46;98104.47;5152224;27;20086;-69
2022/05/15 00:48:38;;;;;;;4.68;1.15;;;;;;;21.17;31.64;98090.66;5135419;27;20031;-68
2022/05/15 00:51:11;;;;;;;4.80;1.00;;;;;;;21.15;31.52;98100.81;5151250;27;20042;-69
2022/05/15 00:53:38;;;;;;;2.15;0.80;;;;;;;21.11;31.60;98093.41;5148875;27;20472;-69
2022/05/15 00:56:04;;;;;;;3.85;1.60;;;;;;;21.07;31.51;98093.03;5152775;27;20058;-67
2022/05/15 00:58:35;;;;;;;2.65;0.93;;;;;;;21.03;31.63;98087.31;5141512;27;20027;-67
2022/05/15 01:01:03;;;;;;;2.70;1.25;;;;;;;20.99;31.76;98087.97;5151495;27;20541;-68
2022/05/15 01:03:28;;;;;;;3.42;1.30;;;;;;;20.98;31.90;98089.03;5147608;27;20463;-68
2022/05/15 01:05:56;;;;;;;3.05;1.20;;;;;;;20.96;31.89;98085.72;5153436;27;20156;-66
2022/05/15 01:08:24;;;;;;;2.05;1.20;;;;;;;20.93;32.02;98083.47;5154255;27;20030;-69
2022/05/15 01:10:53;;;;;;;4.25;1.23;;;;;;;20.88;32.08;98086.84;5155238;27;20460;-68
2022/05/15 01:13:22;;;;;;;7.30;1.40;;;;;;;20.84;32.27;98089.16;5154477;27;20066;-69
2022/05/15 01:15:47;;;;;;;3.65;1.13;;;;;;;20.77;32.54;98083.03;5155704;27;20039;-69
2022/05/15 01:18:20;;;;;;;4.35;1.45;;;;;;;20.74;32.35;98088.81;5155160;27;20079;-71
2022/05/15 01:20:46;;;;;;;3.90;1.10;;;;;;;20.68;32.48;98082.47;5154343;27;20030;-69
2022/05/15 01:23:11;;;;;;;4.22;1.00;;;;;;;20.66;32.71;98087.22;5154945;27;20075;-69
2022/05/15 01:25:37;;;;;;;1.90;1.00;;;;;;;20.63;32.49;98084.19;5154665;27;20030;-69
2022/05/15 01:28:11;;;;;;;3.50;1.23;;;;;;;20.60;32.38;98082.75;5154823;27;20076;-69
2022/05/15 01:30:41;;;;;;;3.40;1.20;;;;;;;20.59;32.54;98087.31;5154848;27;20034;-69
2022/05/15 01:33:07;;;;;;;4.07;1.08;;;;;;;20.56;32.71;98086.94;5154407;27;20030;-69
2022/05/15 01:35:32;;;;;;;2.50;1.13;;;;;;;20.52;32.74;98080.34;5155527;27;20039;-69
2022/05/15 01:37:58;;;;;;;3.35;0.95;;;;;;;20.48;32.80;98089.91;5155189;27;20026;-70
2022/05/15 01:40:23;;;;;;;1.90;0.95;;;;;;;20.45;32.58;98093.03;5154937;27;20038;-69
2022/05/15 01:42:49;;;;;;;6.00;0.90;;;;;;;20.42;32.97;98088.94;5134244;27;20113;-69
2022/05/15 01:45:15;;;;;;;1.92;0.73;;;;;;;20.38;32.73;98088.53;5152097;27;20039;-69
2022/05/15 01:47:41;;;;;;;1.95;0.90;;;;;;;20.38;32.99;98090.41;5154772;27;20035;-69
2022/05/15 01:50:07;;;;;;;3.03;0.90;;;;;;;20.37;32.85;98091.44;5154521;27;20094;-69
2022/05/15 01:52:33;;;;;;;3.50;1.15;;;;;;;20.35;32.67;98086.31;5154680;27;20028;-69
2022/05/15 01:54:59;;;;;;;4.45;1.15;;;;;;;20.35;32.51;98093.53;5154227;27;20054;-69
2022/05/15 01:57:24;;;;;;;4.38;1.17;;;;;;;20.32;32.73;98099.34;5154516;27;20515;-69
2022/05/15 01:59:49;;;;;;;2.65;0.85;;;;;;;20.29;32.58;98084.50;5154220;27;20035;-69
2022/05/15 02:02:15;;;;;;;5.55;1.35;;;;;;;20.25;32.71;98083.28;5154567;27;20037;-70
2022/05/15 02:04:40;;;;;;;1.60;0.90;;;;;;;20.24;32.66;98087.00;5153967;27;20034;-69
2022/05/15 02:07:06;;;;;;;2.25;0.73;;;;;;;20.25;32.82;98091.34;5154643;27;20038;-69
2022/05/15 02:09:32;;;;;;;2.72;0.98;;;;;;;20.23;33.09;98088.03;5153982;27;20461;-69
2022/05/15 02:11:58;;;;;;;3.38;1.00;;;;;;;20.23;32.93;98088.88;5154223;27;20536;-68
2022/05/15 02:14:23;;;;;;;3.13;0.82;;;;;;;20.26;32.92;98087.59;5154380;27;20508;-69
2022/05/15 02:16:49;;;;;;;2.08;0.95;;;;;;;20.28;32.93;98097.13;5154788;27;20097;-68
2022/05/15 02:19:14;;;;;;;2.00;0.88;;;;;;;20.29;32.89;98087.19;5154063;27;20034;-68
2022/05/15 02:21:40;;;;;;;4.63;1.20;;;;;;;20.26;33.02;98085.75;5154758;27;20107;-69
2022/05/15 02:24:05;;;;;;;3.72;1.58;;;;;;;20.26;32.93;98088.44;5154218;27;20052;-69
2022/05/15 02:26:31;;;;;;;3.03;1.27;;;;;;;20.25;33.01;98086.81;5154379;27;20030;-69
2022/05/15 02:28:57;;;;;;;2.30;0.80;;;;;;;20.23;33.22;98090.72;5153669;27;20052;-69
2022/05/15 02:31:22;;;;;;;3.00;0.88;;;;;;;20.20;33.24;98083.94;5142137;27;20046;-68
2022/05/15 02:33:48;;;;;;;2.78;1.20;;;;;;;20.19;32.97;98084.16;5156675;27;20030;-69
2022/05/15 02:36:13;;;;;;;2.20;1.13;;;;;;;20.18;32.99;98080.66;5158509;27;20481;-69
2022/05/15 02:38:39;;;;;;;3.33;1.40;;;;;;;20.19;33.17;98092.22;5158180;27;20035;-69
2022/05/15 02:41:05;;;;;;;3.55;0.88;;;;;;;20.20;33.06;98083.13;5158129;27;20034;-68
2022/05/15 02:43:31;;;;;;;1.85;0.82;;;;;;;20.19;33.23;98084.97;5157555;27;20101;-69
2022/05/15 02:45:57;;;;;;;3.38;1.10;;;;;;;20.23;33.30;98088.03;5158354;27;20070;-68
2022/05/15 02:51:07;;;;;;;3.45;0.88;;;;;;;20.27;33.09;98086.56;5157729;27;20041;-68
2022/05/15 02:53:39;;;;;;;3.95;1.15;;;;;;;20.30;32.96;98083.44;5157143;27;20070;-68
2022/05/15 02:56:11;;;;;;;3.15;1.10;;;;;;;20.33;32.98;98080.34;5158162;27;20039;-68
2022/05/15 02:58:37;;;;;;;3.28;1.17;;;;;;;20.35;32.79;98086.31;5157975;27;20502;-68
2022/05/15 03:01:04;;;;;;;1.83;0.77;;;;;;;20.37;32.83;98083.41;5157723;27;20090;-68
2022/05/15 03:03:30;;;;;;;3.80;1.20;;;;;;;20.39;32.79;98081.31;5146627;27;20083;-68
2022/05/15 03:05:56;;;;;;;4.03;1.00;;;;;;;20.41;32.92;98087.28;5158246;27;20452;-69
2022/05/15 03:08:21;;;;;;;1.45;0.90;;;;;;;20.41;32.72;98080.03;5157292;27;20037;-69
2022/05/15 03:10:47;;;;;;;2.40;1.00;;;;;;;20.40;32.78;98088.34;5157271;27;20125;-69
2022/05/15 03:13:12;;;;;;;3.35;0.95;;;;;;;20.39;32.79;98086.69;5156653;27;20416;-69
2022/05/15 03:15:38;;;;;;;1.95;0.98;;;;;;;20.40;32.53;98099.06;5156934;27;20039;-69
2022/05/15 03:18:04;;;;;;;4.03;0.80;;;;;;;20.40;32.91;98093.69;5157597;27;20038;-69
2022/05/15 03:20:30;;;;;;;1.35;0.70;;;;;;;20.39;33.01;98095.56;5157412;27;20061;-69
2022/05/15 03:22:57;;;;;;;3.88;0.98;;;;;;;20.39;32.88;98090.19;5156734;27;20134;-69
2022/05/15 03:25:24;;;;;;;2.55;1.10;;;;;;;20.38;32.85;98093.09;5157624;27;20031;-69
2022/05/15 03:27:50;;;;;;;1.63;0.90;;;;;;;20.34;33.27;98090.03;5157514;27;20053;-68
2022/05/15 03:30:16;;;;;;;1.55;0.80;;;;;;;20.31;32.98;98090.47;5157186;27;20026;-69
2022/05/15 03:32:41;;;;;;;2.80;1.02;;;;;;;20.31;32.93;98095.00;5156973;27;20050;-69
2022/05/15 03:35:08;;;;;;;3.30;0.90;;;;;;;20.31;33.09;98100.38;5157299;27;20035;-68
2022/05/15 03:37:34;;;;;;;3.33;1.00;;;;;;;20.32;33.02;98092.13;5157302;27;20062;-69
2022/05/15 03:40:00;;;;;;;2.17;0.90;;;;;;;20.34;32.79;98094.56;5155961;27;20085;-69
2022/05/15 03:42:26;;;;;;;2.00;0.90;;;;;;;20.32;32.98;98092.13;5157294;27;20030;-69
2022/05/15 03:44:52;;;;;;;3.00;1.00;;;;;;;20.35;33.13;98096.22;5156684;27;20035;-70
2022/05/15 03:47:19;;;;;;;2.30;1.00;;;;;;;20.35;32.93;98090.84;5156932;27;20508;-70
2022/05/15 03:49:45;;;;;;;3.25;1.00;;;;;;;20.48;32.74;98100.66;5156465;27;20106;-69
2022/05/15 03:52:10;;;;;;;2.65;1.13;;;;;;;20.61;32.83;98088.94;5148225;27;20031;-70
2022/05/15 03:54:36;;;;;;;2.38;1.00;;;;;;;20.74;32.72;98089.66;5136463;27;20085;-70
2022/05/15 03:57:02;;;;;;;1.98;0.88;;;;;;;20.85;32.83;98092.66;5136194;27;20076;-69
2022/05/15 03:59:31;;;;;;;2.25;0.75;;;;;;;20.93;32.60;98089.69;5150417;27;20037;-69
2022/05/15 04:02:01;;;;;;;2.15;1.00;;;;;;;20.97;32.69;98090.88;5154860;27;20031;-68
2022/05/15 04:04:27;;;;;;;3.38;0.82;;;;;;;21.03;32.67;98091.84;5139828;27;20038;-69
2022/05/15 04:06:53;;;;;;;2.20;1.05;;;;;;;21.06;32.72;98101.34;5156397;27;20034;-69
2022/05/15 04:09:18;;;;;;;3.90;1.38;;;;;;;21.08;32.67;98094.69;5156194;27;20039;-68
2022/05/15 04:11:44;;;;;;;5.45;1.17;;;;;;;21.11;32.46;98098.78;5156401;27;20095;-69
2022/05/15 04:14:10;;;;;;;2.15;0.70;;;;;;;21.14;32.65;98095.66;5155780;27;20125;-68
2022/05/15 04:16:35;;;;;;;4.25;0.75;;;;;;;21.22;32.42;98097.22;5156505;27;20038;-68
2022/05/15 04:19:01;;;;;;;1.92;0.90;;;;;;;21.29;32.29;98101.47;5156195;27;20114;-68
2022/05/15 04:21:28;;;;;;;2.60;0.88;;;;;;;21.39;32.23;98092.06;5156473;27;20053;-69
2022/05/15 04:23:53;;;;;;;3.85;0.90;;;;;;;21.49;32.19;98093.13;5155275;27;20034;-68
2022/05/15 04:26:19;;;;;;;7.70;1.08;;;;;;;21.59;32.06;98089.91;5156376;27;20034;-67
2022/05/15 04:28:44;;;;;;;2.72;1.10;;;;;;;21.77;31.86;98089.06;5156330;27;20037;-68
2022/05/15 04:31:10;;;;;;;3.53;0.90;;;;;;;22.05;31.66;98093.00;5156188;27;20031;-68
2022/05/15 04:33:35;;;;;;;2.13;1.08;;;;;;;22.37;31.27;98089.19;5156168;27;20027;-68
2022/05/15 04:36:01;;;;;;;4.07;1.30;;;;;;;22.66;31.06;98094.72;5155878;27;20031;-68
2022/05/15 04:38:27;;;;;;;6.22;1.27;;;;;;;22.95;30.64;98086.72;5155302;27;20035;-69
2022/05/15 04:40:53;;;;;;;4.50;0.98;;;;;;;23.19;30.36;98094.75;5152110;27;20545;-68
2022/05/15 04:43:18;;;;;;;3.40;1.02;;;;;;;23.41;30.07;98082.28;5134778;27;20039;-69
2022/05/15 04:45:45;;;;;;;3.90;0.85;;;;;;;23.59;29.95;98088.56;5135115;27;20111;-68
2022/05/15 04:48:12;;;;;;;4.55;1.33;;;;;;;23.75;30.03;98092.34;5135037;27;20125;-69
2022/05/15 04:50:38;;;;;;;2.33;0.95;;;;;;;23.89;29.81;98090.97;5154591;27;20095;-69
2022/05/15 04:53:04;;;;;;;3.45;0.98;;;;;;;24.00;29.62;98086.59;5155412;27;20473;-69
2022/05/15 04:55:30;;;;;;;1.98;1.00;;;;;;;24.10;29.53;98087.81;5154333;27;20030;-68
2022/05/15 04:57:55;;;;;;;10.60;1.50;;;;;;;24.17;29.46;98086.59;5155602;27;20130;-68
2022/05/15 05:00:21;;;;;;;3.30;1.33;;;;;;;24.21;29.22;98084.22;5154930;27;20030;-67
2022/05/15 05:02:47;;;;;;;5.88;1.65;;;;;;;24.28;29.48;98089.47;5154991;27;20042;-68
2022/05/15 05:05:12;;;;;;;2.38;0.77;;;;;;;24.29;28.93;98094.63;5148763;27;20058;-67
2022/05/15 05:07:39;;;;;;;2.58;1.00;;;;;;;24.32;29.47;98091.44;5134882;27;20083;-67
2022/05/15 05:10:07;;;;;;;1.40;0.95;;;;;;;24.36;29.00;98089.06;5152968;27;20477;-67
2022/05/15 05:12:32;;;;;;;2.53;0.85;;;;;;;24.39;29.13;98085.88;5155141;27;20050;-67
2022/05/15 05:14:58;;;;;;;2.83;1.02;;;;;;;24.38;29.27;98085.03;5155058;27;20162;-67
2022/05/15 05:17:25;;;;;;;4.07;1.13;;;;;;;24.42;29.43;98085.34;5155364;27;20042;-67
2022/05/15 05:19:50;;;;;;;2.13;0.90;;;;;;;24.46;29.06;98083.00;5154022;27;20377;-66
2022/05/15 05:22:16;;;;;;;3.53;0.98;;;;;;;24.48;29.13;98086.28;5155109;27;20038;-66
2022/05/15 05:24:42;;;;;;;3.75;1.20;;;;;;;24.50;29.09;98084.13;5154954;27;20031;-68
2022/05/15 05:27:08;;;;;;;2.97;1.25;;;;;;;24.53;29.09;98086.34;5154937;27;20027;-67
2022/05/15 05:29:34;;;;;;;6.00;1.15;;;;;;;24.57;29.03;98086.66;5154492;27;20130;-67
2022/05/15 05:31:59;;;;;;;3.85;1.10;;;;;;;24.58;28.78;98083.72;5154290;27;20121;-67
2022/05/15 05:34:25;;;;;;;6.38;1.10;;;;;;;24.61;29.11;98094.03;5154324;27;20030;-68
2022/05/15 05:36:50;;;;;;;2.92;0.98;;;;;;;24.68;29.16;98088.47;5155274;27;20389;-67
2022/05/15 05:39:17;;;;;;;4.72;1.02;;;;;;;24.72;28.80;98095.00;5154580;27;20117;-67
2022/05/15 05:41:43;;;;;;;2.65;1.30;;;;;;;24.73;29.13;98090.44;5154875;27;20417;-68
2022/05/15 05:44:08;;;;;;;1.55;1.02;;;;;;;24.73;29.19;98087.75;5154190;27;20037;-67
2022/05/15 05:46:34;;;;;;;3.03;1.02;;;;;;;24.75;28.63;98083.72;5154924;27;20078;-67
2022/05/15 05:49:00;;;;;;;4.82;0.90;;;;;;;24.75;28.94;98091.81;5154372;27;20066;-67
2022/05/15 05:51:26;;;;;;;2.65;0.77;;;;;;;24.74;29.00;98092.09;5154672;27;20468;-67
2022/05/15 05:53:51;;;;;;;2.45;0.95;;;;;;;24.70;29.02;98096.34;5154300;27;20492;-68
2022/05/15 05:56:17;;;;;;;5.40;0.90;;;;;;;24.63;28.55;98091.09;5154733;27;20418;-68
2022/05/15 05:58:42;;;;;;;3.30;1.00;;;;;;;24.56;28.99;98088.56;5153478;27;20063;-67
2022/05/15 06:01:08;;;;;;;2.13;1.10;;;;;;;24.54;28.61;98085.28;5154664;27;20094;-68
2022/05/15 06:06:18;;;;;;;3.85;1.23;;;;;;;24.45;29.30;98094.88;5133978;27;20461;-67
2022/05/15 06:08:44;;;;;;;2.17;1.25;;;;;;;24.42;28.99;98089.97;5138658;27;20027;-68
2022/05/15 06:11:12;;;;;;;4.90;1.80;;;;;;;24.37;29.13;98093.41;5154025;27;20085;-67
2022/05/15 06:13:39;;;;;;;1.67;0.60;;;;;;;24.32;29.61;98096.84;5154032;27;20054;-68
2022/05/15 06:16:05;;;;;;;4.50;0.93;;;;;;;24.29;29.34;98096.50;5145701;27;20454;-67
2022/05/15 06:18:32;;;;;;;2.35;0.98;;;;;;;24.25;29.72;98093.47;5144800;27;20027;-67
2022/05/15 06:20:57;;;;;;;2.85;1.02;;;;;;;24.22;29.44;98093.97;5154442;27;20374;-67
2022/05/15 06:23:23;;;;;;;4.03;1.13;;;;;;;24.18;29.76;98096.34;5154224;27;20037;-67
2022/05/15 06:25:48;;;;;;;3.97;1.45;;;;;;;24.19;29.57;98091.78;5154026;27;20033;-68
2022/05/15 06:28:14;;;;;;;8.95;0.85;;;;;;;24.16;29.35;98097.66;5154237;27;20029;-67
2022/05/15 06:30:39;;;;;;;2.25;0.85;;;;;;;24.12;29.49;98093.81;5154192;27;20477;-68
2022/05/15 06:33:06;;;;;;;3.40;0.90;;;;;;;24.12;29.67;98088.41;5153775;27;20163;-67
2022/05/15 06:35:32;;;;;;;1.90;0.50;;;;;;;24.12;30.03;98104.63;5154201;27;20491;-68
2022/05/15 06:38:05;;;;;;;4.60;1.05;;;;;;;24.10;29.85;98094.06;5154085;27;20117;-67
2022/05/15 06:40:31;;;;;;;2.28;0.95;;;;;;;24.06;29.63;98096.41;5154137;27;20031;-68
2022/05/15 06:42:57;;;;;;;1.92;0.80;;;;;;;24.02;29.70;98092.59;5154144;27;20057;-68
2022/05/15 06:45:23;;;;;;;1.98;0.90;;;;;;;23.97;29.94;98094.38;5153668;27;20521;-68
2022/05/15 06:47:49;;;;;;;1.70;0.82;;;;;;;23.93;29.80;98092.13;5153980;27;20027;-68
2022/05/15 06:50:15;;;;;;;2.97;0.70;;;;;;;23.90;30.01;98086.38;5154031;27;20497;-68
2022/05/15 06:52:41;;;;;;;4.57;0.90;;;;;;;23.87;30.11;98084.19;5141681;27;20091;-68
2022/05/15 06:55:12;;;;;;;1.42;0.75;;;;;;;23.85;30.39;98087.13;5145573;27;20026;-68
2022/05/15 06:57:38;;;;;;;3.03;1.08;;;;;;;23.83;30.14;98085.72;5153571;27;20062;-68
2022/05/15 07:00:12;;;;;;;1.35;0.63;;;;;;;23.80;30.13;98076.25;5153281;27;20027;-68
2022/05/15 07:02:41;;;;;;;1.67;0.80;;;;;;;23.78;30.35;98081.88;5137510;27;20031;-68
2022/05/15 07:05:08;;;;;;;4.88;0.85;;;;;;;23.75;30.28;98076.94;5153776;27;20061;-68
2022/05/15 07:07:34;;;;;;;3.08;0.80;;;;;;;23.73;30.06;98076.41;5154352;27;20430;-68
2022/05/15 07:10:00;;;;;;;2.58;0.90;;;;;;;23.70;30.01;98070.63;5151958;27;20046;-68
2022/05/15 07:12:25;;;;;;;3.17;0.60;;;;;;;23.67;30.11;98065.75;5153606;27;20109;-68
2022/05/15 07:14:51;;;;;;;2.08;0.80;;;;;;;23.65;30.38;98068.66;5153596;27;20511;-69
2022/05/15 07:17:17;;;;;;;2.40;0.98;;;;;;;23.65;30.07;98065.97;5153677;27;20087;-68
2022/05/15 07:19:42;;;;;;;2.03;1.00;;;;;;;23.64;29.85;98058.94;5156175;27;20408;-68
2022/05/15 07:22:10;;;;;;;2.15;0.80;;;;;;;23.66;29.88;98064.09;5157407;27;20069;-68
2022/05/15 07:24:38;;;;;;;1.35;0.70;;;;;;;23.66;30.27;98062.22;5157331;27;20412;-68
2022/05/15 07:27:06;;;;;;;1.77;0.65;;;;;;;23.65;29.62;98065.97;5157136;27;20062;-67
2022/05/15 07:29:31;;;;;;;1.23;0.65;;;;;;;23.65;29.69;98065.16;5156533;27;20030;-67
2022/05/15 07:31:57;;;;;;;2.40;0.52;;;;;;;23.64;29.90;98058.94;5157147;27;20086;-68
2022/05/15 07:34:23;;;;;;;1.70;0.60;;;;;;;23.63;29.38;98057.28;5156937;27;20492;-67
2022/05/15 07:36:52;;;;;;;1.67;0.80;;;;;;;23.60;29.54;98058.59;5157310;27;20107;-67
2022/05/15 07:39:20;;;;;;;1.40;0.90;;;;;;;23.57;29.62;98048.28;5156149;27;20054;-68
2022/05/15 07:41:45;;;;;;;2.97;1.08;;;;;;;23.58;29.92;98052.63;5147839;27;20031;-68
2022/05/15 07:44:11;;;;;;;1.50;0.63;;;;;;;23.59;29.59;98056.16;5136410;27;20088;-68
2022/05/15 07:46:36;;;;;;;1.15;0.57;;;;;;;23.60;29.49;98047.00;5136062;27;20478;-68
2022/05/15 07:49:02;;;;;;;4.28;0.60;;;;;;;23.60;29.32;98038.91;5141404;27;20034;-68
2022/05/15 07:51:29;;;;;;;1.20;0.50;;;;;;;23.57;29.25;98050.97;5156913;27;20438;-68
2022/05/15 07:53:54;;;;;;;1.98;0.50;;;;;;;23.54;29.42;98048.75;5156909;27;20385;-68
2022/05/15 07:56:20;;;;;;;3.28;0.70;;;;;;;23.57;29.47;98047.47;5156423;27;20038;-67
2022/05/15 07:58:45;;;;;;;1.35;0.60;;;;;;;23.60;29.34;98058.59;5156692;27;20087;-68
2022/05/15 08:01:11;;;;;;;1.35;0.65;;;;;;;23.63;29.21;98046.50;5156917;27;20027;-68
2022/05/15 08:03:43;;;;;;;0.88;0.47;;;;;;;23.66;29.34;98043.31;5155690;27;20113;-68
2022/05/15 08:09:00;;;;;;;2.83;0.70;;;;;;;23.75;29.04;98046.44;5156674;27;20038;-68
2022/05/15 08:11:28;;;;;;;3.15;0.60;;;;;;;23.76;28.92;98043.47;5156176;27;20159;-69
2022/05/15 08:13:55;;;;;;;2.45;0.80;;;;;;;23.79;28.88;98039.50;5155937;27;20030;-68
2022/05/15 08:16:22;;;;;;;1.42;0.63;;;;;;;23.74;28.94;98034.81;5156125;27;20042;-69
2022/05/15 08:24:15;;;;;;;3.13;1.00;;;;;;;23.72;29.14;98046.91;5153127;27;20034;-68
2022/05/15 08:26:41;;;;;;;1.75;0.80;;;;;;;23.70;28.91;98041.78;5135510;27;20413;-69
2022/05/15 08:29:07;;;;;;;4.30;0.68;;;;;;;23.70;29.05;98047.16;5135085;27;20030;-68
2022/05/15 08:31:33;;;;;;;2.95;0.50;;;;;;;23.73;29.19;98045.84;5134956;27;20038;-69
2022/05/15 08:33:58;;;;;;;1.88;0.70;;;;;;;23.74;28.63;98042.94;5142591;27;20031;-69
2022/05/15 08:36:24;;;;;;;2.38;0.60;;;;;;;23.74;28.69;98037.53;5155737;27;20129;-69
2022/05/15 08:38:49;;;;;;;3.00;0.60;;;;;;;23.74;28.60;98037.53;5155761;27;20038;-68
2022/05/15 08:41:27;;;;;;;1.08;0.57;;;;;;;23.75;28.93;98043.72;5155852;27;20034;-68
2022/05/15 08:44:29;;;;;;;4.03;0.90;;;;;;;23.76;28.74;98018.38;5155592;27;20091;-68
2022/05/15 08:47:14;;;;;;;5.03;0.70;;;;;;;23.78;29.04;98035.97;5155660;27;20038;-67
2022/05/15 08:50:02;;;;;;;3.08;0.60;;;;;;;23.83;29.06;98037.13;5155712;27;20065;-67
2022/05/15 08:52:28;;;;;;;2.00;0.50;;;;;;;23.87;28.88;98043.66;5155399;27;20087;-67
2022/05/15 08:55:04;;;;;;;3.22;0.90;;;;;;;23.91;29.21;98040.22;5154828;27;20447;-68
2022/05/15 08:57:55;;;;;;;3.28;0.70;;;;;;;23.91;29.40;98042.94;5138144;27;20042;-68
2022/05/15 09:00:28;;;;;;;6.82;0.70;;;;;;;23.93;29.27;98053.47;5147855;27;20034;-67
2022/05/15 09:02:59;;;;;;;3.10;1.17;;;;;;;23.88;29.18;98048.81;5147969;27;20031;-66
2022/05/15 09:05:29;;;;;;;4.80;1.58;;;;;;;23.85;28.89;98070.91;5135299;27;20569;-68
2022/05/15 09:08:09;;;;;;;1.80;0.75;;;;;;;23.81;28.79;98090.56;5134439;27;20035;-67
2022/05/15 09:10:48;;;;;;;8.15;1.77;;;;;;;23.74;29.68;98099.63;5137803;27;20038;-67
2022/05/15 09:13:30;;;;;;;6.97;1.13;;;;;;;23.61;29.78;98092.63;5154226;27;20061;-67
2022/05/15 09:15:59;;;;;;;;;;;;;;;23.47;29.90;98102.91;5135279;27;20058;-68
2022/05/15 09:18:27;;;;;;;9.05;0.65;;;;;;;23.42;30.21;98093.88;5138111;27;19921;-68
2022/05/15 09:20:52;;;;;;;5.20;0.95;;;;;;;23.40;30.18;98099.53;5154866;27;20060;-68
2022/05/15 09:23:17;;;;;;;3.05;1.05;;;;;;;23.35;30.50;98104.81;5138436;27;20113;-67
2022/05/15 09:25:54;;;;;;;2.65;0.90;;;;;;;23.33;30.29;98101.53;5155019;27;20038;-67
2022/05/15 09:28:20;;;;;;;3.13;0.80;;;;;;;23.29;30.56;98101.19;5154961;27;20396;-67
2022/05/15 09:30:49;;;;;;;4.18;0.80;;;;;;;23.29;30.75;98100.41;5154689;27;20041;-67
2022/05/15 09:33:51;;;;;;;5.28;1.20;;;;;;;23.28;30.71;98085.25;5135362;27;20042;-67
2022/05/15 09:36:34;;;;;;;3.20;1.00;;;;;;;23.26;31.02;98088.19;5116784;27;20472;-67
2022/05/15 09:39:38;;;;;;;6.68;0.85;;;;;;;23.28;31.00;98077.16;5152335;27;20492;-68
2022/05/15 09:45:19;;;;;;;4.80;0.85;;;;;;;23.30;31.18;98083.16;5155003;27;20061;-68
2022/05/15 09:47:52;;;;;;;6.03;1.70;;;;;;;23.29;31.32;98078.81;5154249;27;20030;-67
2022/05/15 09:50:56;;;;;;;7.50;0.95;;;;;;;23.29;31.53;98085.00;5154205;27;20031;-68
2022/05/15 09:53:44;;;;;;;2.30;0.88;;;;;;;23.26;31.54;98085.47;5139080;27;20050;-68
2022/05/15 09:56:22;;;;;;;2.67;0.85;;;;;;;23.25;31.53;98077.63;5143198;27;20031;-67
2022/05/15 09:58:51;;;;;;;2.40;0.90;;;;;;;23.25;31.52;98081.16;5151618;27;20473;-68
2022/05/15 10:01:48;;;;;;;2.92;1.27;;;;;;;23.25;31.47;98067.66;5141623;27;20133;-68
2022/05/15 10:04:32;;;;;;;2.47;0.95;;;;;;;23.26;31.53;98068.50;5152876;27;20041;-67
2022/05/15 10:07:03;;;;;;;3.80;1.00;;;;;;;23.24;31.60;98059.81;5153659;27;20038;-68
2022/05/15 10:09:38;;;;;;;0.57;0.40;;;;;;;23.23;31.18;98058.16;5153518;27;20426;-67
2022/05/15 10:12:24;;;;;;;2.65;0.60;;;;;;;23.20;30.87;98066.72;5153262;27;20042;-67
2022/05/15 10:14:53;;;;;;;2.05;0.90;;;;;;;23.15;30.89;98060.16;5153818;27;20043;-67
2022/05/15 10:17:21;;;;;;;2.22;0.60;;;;;;;23.13;30.80;98054.19;5144101;27;20042;-67
2022/05/15 10:20:04;;;;;;;1.58;0.90;;;;;;;23.12;30.87;98062.50;5148520;27;20062;-66
2022/05/15 10:22:39;;;;;;;2.60;0.80;;;;;;;23.09;31.04;98052.19;5133570;28;20058;-68
2022/05/15 10:25:21;;;;;;;2.85;1.00;;;;;;;23.08;30.83;98050.56;5153553;27;20087;-66
2022/05/15 10:27:57;;;;;;;6.70;1.75;;;;;;;23.09;31.02;98065.66;5154111;27;20027;-68
2022/05/15 10:30:31;;;;;;;6.13;1.60;;;;;;;23.07;30.85;98063.22;5153393;27;20098;-67
2022/05/15 10:33:03;;;;;;;7.25;2.10;;;;;;;23.08;30.80;98058.66;5153477;27;20420;-68
2022/05/15 10:35:51;;;;;;;8.35;2.38;;;;;;;23.08;31.04;98062.16;5153631;27;20126;-67
2022/05/15 10:38:46;;;;;;;7.90;2.40;;;;;;;23.09;30.88;98071.06;5134006;27;20027;-68
2022/05/15 10:41:37;;;;;;;23.15;4.80;;;;;;;23.07;31.05;98071.31;5131096;27;20039;-69
2022/05/15 10:44:22;;;;;;;22.83;5.65;;;;;;;23.09;31.08;98071.06;5133389;28;20457;-68
2022/05/15 10:46:55;;;;;;;13.30;5.40;;;;;;;23.08;31.01;98067.56;5142875;27;20400;-67
2022/05/15 10:49:38;;;;;;;19.88;4.22;;;;;;;23.06;30.91;98064.28;5153386;27;20121;-68
2022/05/15 10:52:22;;;;;;;9.93;3.35;;;;;;;23.06;30.93;98058.88;5153961;27;20053;-68
2022/05/15 10:58:45;;;;;;;13.20;3.83;;;;;;;22.99;30.76;98059.03;5137680;27;20050;-68
2022/05/15 11:01:19;;;;;;;17.55;5.25;;;;;;;22.97;30.87;98063.03;5136986;27;20027;-68
2022/05/15 11:04:06;;;;;;;15.73;4.85;;;;;;;22.95;30.83;98067.84;5152085;27;20491;-68
2022/05/15 11:07:07;;;;;;;7.93;2.33;;;;;;;22.95;30.75;98071.34;5157663;27;20041;-67
2022/05/15 11:09:44;;;;;;;;;;;;;;;22.84;30.62;98069.50;5157945;27;20109;-68
2022/05/15 11:12:21;;;;;;;7.75;2.42;;;;;;;22.81;30.39;98065.41;5157474;27;19923;-68
2022/05/15 11:15:05;;;;;;;7.32;2.60;;;;;;;22.80;30.50;98074.53;5144457;27;20049;-68
2022/05/15 11:18:08;;;;;;;10.50;2.67;;;;;;;22.79;30.20;98069.41;5136535;27;20477;-68
2022/05/15 11:20:45;;;;;;;3.97;1.90;;;;;;;22.77;30.22;98075.00;5136477;27;20031;-68
2022/05/15 11:23:20;;;;;;;4.45;1.65;;;;;;;22.77;30.41;98061.53;5136525;27;20123;-68
2022/05/15 11:26:01;;;;;;;5.25;2.03;;;;;;;22.76;30.34;98065.28;5155238;27;20034;-68
2022/05/15 11:28:30;;;;;;;8.02;2.42;;;;;;;22.77;30.40;98064.22;5156816;27;20038;-68
2022/05/15 11:31:01;;;;;;;8.32;2.33;;;;;;;22.81;30.50;98064.56;5148077;27;20058;-68
2022/05/15 11:33:48;;;;;;;7.45;1.77;;;;;;;22.80;30.37;98066.44;5142213;27;20038;-69
2022/05/15 11:36:27;;;;;;;5.35;1.77;;;;;;;22.82;30.13;98068.91;5156817;27;20520;-68
2022/05/15 11:38:55;;;;;;;3.60;1.17;;;;;;;22.79;30.19;98062.13;5157252;27;20179;-69
2022/05/15 11:41:35;;;;;;;7.88;2.83;;;;;;;22.77;30.22;98061.53;5146005;27;20027;-68
2022/05/15 11:44:05;;;;;;;7.63;2.00;;;;;;;22.80;30.46;98066.44;5135998;27;20041;-67
2022/05/15 11:46:50;;;;;;;5.85;1.92;;;;;;;22.82;30.57;98058.94;5119068;27;20046;-67
2022/05/15 11:49:23;;;;;;;6.65;1.70;;;;;;;22.84;30.56;98054.16;5155624;27;20038;-68
2022/05/15 11:52:04;;;;;;;3.83;1.50;;;;;;;22.86;30.66;98052.03;5156588;27;20531;-67
2022/05/15 11:54:36;;;;;;;5.05;1.63;;;;;;;22.87;30.43;98044.75;5156722;27;20030;-67
2022/05/15 11:57:05;;;;;;;10.52;1.98;;;;;;;22.89;30.71;98052.59;5156717;27;20047;-67
2022/05/15 11:59:39;;;;;;;5.43;2.03;;;;;;;22.90;30.67;98046.13;5142450;27;20065;-68
2022/05/15 12:02:29;;;;;;;3.33;1.67;;;;;;;22.92;30.70;98052.13;5151859;27;20031;-68
2022/05/15 12:05:09;;;;;;;4.95;2.33;;;;;;;22.91;31.07;98045.91;5135741;27;20477;-68
2022/05/15 12:07:55;;;;;;;5.18;1.73;;;;;;;22.92;31.13;98046.72;5135789;27;20031;-68